Time;durP1;ratioP1;P1;durP2;ratioP2;P2;SDS_P1;SDS_P2;PMS_P1;PMS_P2;Temp;Humidity;BMP_temperature;BMP_pressure;BME280_temperature;BME280_humidity;BME280_pressure;Samples;Min_cycle;Max_cycle;Signal;HPM_P1;HPM_P2
2023/01/10 00:01:56;;;;;;;120.40;38.30;;;;;;;6.37;100.00;99524.03;5054536;28;20037;-71
2023/01/10 00:04:25;;;;;;;140.55;38.92;;;;;;;6.22;100.00;99523.63;5054686;28;20033;-71
2023/01/10 00:06:51;;;;;;;133.45;40.78;;;;;;;6.51;100.00;99528.03;5054447;28;20037;-72
2023/01/10 00:09:16;;;;;;;136.05;44.95;;;;;;;6.58;100.00;99523.88;5051701;28;20043;-72
2023/01/10 00:14:28;;;;;;;130.68;43.10;;;;;;;6.87;100.00;99515.88;5054343;28;20226;-72
2023/01/10 00:16:53;;;;;;;112.78;39.47;;;;;;;7.01;100.00;99521.50;5053008;28;20314;-72
2023/01/10 00:19:18;;;;;;;119.50;39.03;;;;;;;7.14;100.00;99518.53;5053982;28;20025;-72
2023/01/10 00:21:44;;;;;;;123.15;42.22;;;;;;;7.27;100.00;99507.69;5052457;28;20055;-72
2023/01/10 00:24:20;;;;;;;133.32;39.85;;;;;;;7.37;100.00;99495.31;5053298;28;20039;-73
2023/01/10 00:26:50;;;;;;;121.28;38.47;;;;;;;7.45;100.00;99489.31;5052286;28;20075;-72
2023/01/10 00:29:20;;;;;;;115.97;38.33;;;;;;;7.56;100.00;99486.47;5051952;28;20041;-71
2023/01/10 00:31:46;;;;;;;130.73;40.17;;;;;;;7.54;100.00;99486.59;5051526;28;20037;-71
2023/01/10 00:34:12;;;;;;;126.68;39.92;;;;;;;7.58;100.00;99472.16;5052474;28;20435;-72
2023/01/10 00:36:37;;;;;;;145.75;42.45;;;;;;;7.60;100.00;99485.19;5054017;28;20045;-73
2023/01/10 00:39:03;;;;;;;146.75;40.47;;;;;;;7.54;100.00;99468.16;5053958;28;20037;-71
2023/01/10 00:44:12;;;;;;;;;;;;;;;7.62;100.00;99464.78;5050864;28;20083;-71
2023/01/10 00:46:38;;;;;;;106.65;34.88;;;;;;;7.60;100.00;99464.09;5051432;28;20227;-72
2023/01/10 00:49:07;;;;;;;101.25;34.03;;;;;;;7.52;100.00;99449.03;5051412;28;20104;-73
2023/01/10 00:51:32;;;;;;;101.15;36.17;;;;;;;7.59;100.00;99457.19;5054166;28;20041;-71
2023/01/10 00:53:57;;;;;;;104.63;36.70;;;;;;;7.62;100.00;99459.50;5052311;28;20265;-72
2023/01/10 00:56:23;;;;;;;103.72;36.03;;;;;;;7.63;100.00;99466.44;5054170;28;20044;-71
2023/01/10 00:58:48;;;;;;;115.20;37.78;;;;;;;7.59;100.00;99470.34;5053069;28;20040;-70
2023/01/10 01:01:14;;;;;;;108.35;36.72;;;;;;;7.57;100.00;99477.56;5053018;28;20045;-72
2023/01/10 01:03:39;;;;;;;113.32;37.80;;;;;;;7.60;100.00;99475.47;5052015;28;20031;-71
2023/01/10 01:06:06;;;;;;;114.80;38.10;;;;;;;7.61;100.00;99463.13;5053502;28;20051;-72
2023/01/10 01:08:31;;;;;;;113.03;39.42;;;;;;;7.63;100.00;99459.38;5052984;28;20315;-72
2023/01/10 01:10:57;;;;;;;116.65;38.17;;;;;;;7.67;100.00;99450.19;5035057;28;20039;-72
2023/01/10 01:13:22;;;;;;;122.32;40.72;;;;;;;7.65;100.00;99443.41;5052559;28;20258;-72
2023/01/10 01:15:48;;;;;;;123.13;38.78;;;;;;;7.63;100.00;99440.91;5051301;28;20045;-71
2023/01/10 01:18:17;;;;;;;122.70;38.92;;;;;;;7.67;100.00;99449.34;5051358;28;20045;-72
2023/01/10 01:20:44;;;;;;;121.70;40.95;;;;;;;7.63;100.00;99446.19;5052890;28;20032;-70
2023/01/10 01:23:10;;;;;;;114.25;40.75;;;;;;;7.56;100.00;99447.75;5052043;28;20044;-71
2023/01/10 01:25:36;;;;;;;118.40;40.03;;;;;;;7.48;100.00;99446.84;5050518;28;20235;-71
2023/01/10 01:28:02;;;;;;;111.47;41.63;;;;;;;7.35;100.00;99458.59;5034520;28;20330;-72
2023/01/10 01:30:27;;;;;;;122.47;40.10;;;;;;;7.36;100.00;99448.88;5053190;28;20033;-71
2023/01/10 01:32:53;;;;;;;132.30;39.67;;;;;;;7.34;100.00;99437.66;5052310;28;20037;-71
2023/01/10 01:35:18;;;;;;;120.13;39.85;;;;;;;7.38;100.00;99452.19;5053167;28;20039;-72
2023/01/10 01:37:44;;;;;;;123.47;39.75;;;;;;;7.32;100.00;99464.16;5050546;28;20262;-72
2023/01/10 01:40:14;;;;;;;139.82;40.17;;;;;;;7.06;100.00;99450.00;5052834;28;20033;-71
2023/01/10 01:42:40;;;;;;;131.95;42.25;;;;;;;7.00;100.00;99438.25;5051408;28;20053;-72
2023/01/10 01:45:08;;;;;;;123.60;42.45;;;;;;;6.99;100.00;99430.50;5051616;28;20056;-72
2023/01/10 01:47:59;;;;;;;136.10;43.53;;;;;;;7.07;100.00;99430.59;5049708;28;20455;-73
2023/01/10 01:50:36;;;;;;;136.65;42.15;;;;;;;7.24;100.00;99418.44;5050735;28;20100;-71
2023/01/10 01:53:07;;;;;;;134.00;41.08;;;;;;;7.23;100.00;99403.59;5050307;28;20297;-72
2023/01/10 01:55:35;;;;;;;146.85;43.22;;;;;;;7.34;100.00;99390.25;5051826;28;20071;-71
2023/01/10 01:58:05;;;;;;;166.68;43.95;;;;;;;7.42;100.00;99389.50;5052208;28;20052;-72
2023/01/10 02:00:31;;;;;;;139.43;40.47;;;;;;;7.49;100.00;99383.47;5052360;28;20040;-72
2023/01/10 02:02:59;;;;;;;141.05;39.35;;;;;;;7.44;100.00;99396.28;5052564;28;20385;-71
2023/01/10 02:05:25;;;;;;;121.35;38.47;;;;;;;7.43;100.00;99389.34;5053276;28;20065;-72
2023/01/10 02:07:55;;;;;;;136.95;38.40;;;;;;;7.41;100.00;99387.84;5051157;28;20039;-73
2023/01/10 02:11:02;;;;;;;121.07;38.58;;;;;;;7.38;100.00;99380.25;5052733;28;20048;-71
2023/01/10 02:13:27;;;;;;;132.30;37.65;;;;;;;7.36;100.00;99373.31;5050839;28;20060;-72
2023/01/10 02:15:53;;;;;;;124.07;39.95;;;;;;;7.42;100.00;99357.88;5052878;28;20048;-71
2023/01/10 02:18:20;;;;;;;121.53;38.30;;;;;;;7.53;100.00;99355.84;5050765;28;20223;-72
2023/01/10 02:21:23;;;;;;;183.43;43.42;;;;;;;7.65;100.00;99343.25;5051318;28;20037;-72
2023/01/10 02:24:10;;;;;;;125.10;38.13;;;;;;;7.63;100.00;99335.50;5050826;28;20069;-72
2023/01/10 02:26:59;;;;;;;130.38;38.33;;;;;;;7.72;100.00;99333.75;5051352;28;20032;-72
2023/01/10 02:29:46;;;;;;;132.63;38.45;;;;;;;7.65;100.00;99327.44;5052315;28;20259;-72
2023/01/10 02:32:17;;;;;;;128.70;36.90;;;;;;;7.54;100.00;99325.91;5052631;28;20335;-73
2023/01/10 02:34:45;;;;;;;137.82;38.00;;;;;;;7.62;100.00;99317.22;5051762;28;20112;-73
2023/01/10 02:37:16;;;;;;;164.27;39.33;;;;;;;7.68;100.00;99304.25;5053659;28;20032;-71
2023/01/10 02:40:07;;;;;;;124.78;35.35;;;;;;;7.61;100.00;99284.78;5052442;28;20033;-71
2023/01/10 02:42:57;;;;;;;144.73;36.92;;;;;;;7.25;100.00;99286.59;5051069;28;20347;-71
2023/01/10 02:45:49;;;;;;;112.45;35.22;;;;;;;7.48;100.00;99317.78;5051966;28;20048;-73
2023/01/10 02:48:16;;;;;;;139.85;41.95;;;;;;;7.51;100.00;99322.75;5044918;28;20049;-72
2023/01/10 02:50:41;;;;;;;145.75;39.13;;;;;;;7.47;100.00;99319.59;5050138;28;20033;-71
2023/01/10 02:53:15;;;;;;;140.82;38.53;;;;;;;7.37;100.00;99329.38;5050039;28;20108;-72
2023/01/10 02:55:40;;;;;;;136.02;38.45;;;;;;;7.32;100.00;99343.00;5050254;28;20078;-71
2023/01/10 02:58:24;;;;;;;131.38;37.05;;;;;;;7.31;100.00;99329.97;5051864;28;20039;-72
2023/01/10 03:01:21;;;;;;;145.50;37.42;;;;;;;7.40;100.00;99325.59;5050948;28;20389;-72
2023/01/10 03:03:57;;;;;;;119.85;38.17;;;;;;;7.27;100.00;99318.88;5022187;28;20080;-71
2023/01/10 03:06:29;;;;;;;166.35;40.03;;;;;;;7.45;100.00;99313.63;5052199;28;20109;-71
2023/01/10 03:09:08;;;;;;;123.15;37.38;;;;;;;7.52;100.00;99309.41;5052487;28;20036;-72
2023/01/10 03:11:41;;;;;;;118.72;40.63;;;;;;;7.61;100.00;99297.13;5054667;28;20064;-72
2023/01/10 03:14:21;;;;;;;111.45;36.25;;;;;;;7.56;100.00;99305.50;5055045;28;20040;-71
2023/01/10 03:16:53;;;;;;;118.13;36.35;;;;;;;7.55;100.00;99300.38;5054566;28;20361;-71
2023/01/10 03:19:22;;;;;;;114.20;37.90;;;;;;;7.51;100.00;99304.28;5055690;28;20036;-71
2023/01/10 03:21:52;;;;;;;124.88;37.38;;;;;;;7.49;100.00;99306.25;5055003;28;20040;-72
2023/01/10 03:24:24;;;;;;;132.02;36.83;;;;;;;7.42;100.00;99290.22;5036854;28;20557;-72
2023/01/10 03:26:57;;;;;;;105.40;34.42;;;;;;;7.36;100.00;99293.47;5055734;28;20040;-71
2023/01/10 03:29:41;;;;;;;108.15;35.03;;;;;;;7.40;100.00;99294.00;5053431;28;20048;-71
2023/01/10 03:32:10;;;;;;;134.80;38.67;;;;;;;7.35;100.00;99291.81;5054173;28;20033;-72
2023/01/10 03:34:37;;;;;;;101.82;34.03;;;;;;;7.26;100.00;99285.63;5056052;28;20885;-71
2023/01/10 03:37:22;;;;;;;98.68;33.33;;;;;;;7.19;100.00;99289.84;5055074;28;20033;-71
2023/01/10 03:40:17;;;;;;;95.30;34.67;;;;;;;7.11;100.00;99275.78;5052954;28;20044;-71
2023/01/10 03:45:58;;;;;;;98.15;36.40;;;;;;;7.15;100.00;99267.44;5052121;28;20057;-71
2023/01/10 03:48:28;;;;;;;107.55;35.47;;;;;;;7.23;100.00;99287.75;5052498;28;20041;-71
2023/01/10 03:50:55;;;;;;;110.43;39.28;;;;;;;7.21;100.00;99292.34;5055924;28;20052;-71
2023/01/10 03:53:21;;;;;;;119.30;38.92;;;;;;;7.20;100.00;99299.41;5054293;28;20107;-72
2023/01/10 03:55:46;;;;;;;121.13;41.30;;;;;;;7.23;100.00;99293.00;5052630;28;20254;-73
2023/01/10 03:58:12;;;;;;;114.18;39.30;;;;;;;7.32;100.00;99290.31;5054837;28;20029;-72
2023/01/10 04:00:38;;;;;;;110.57;39.50;;;;;;;7.33;100.00;99265.63;5054249;28;20028;-71
2023/01/10 04:03:03;;;;;;;116.68;39.00;;;;;;;7.35;100.00;99247.06;5054556;28;20530;-72
2023/01/10 04:05:29;;;;;;;114.32;41.55;;;;;;;7.36;100.00;99238.16;5051651;28;20071;-71
2023/01/10 04:07:54;;;;;;;129.05;44.17;;;;;;;7.36;100.00;99222.38;5053151;28;20060;-72
2023/01/10 04:10:20;;;;;;;132.65;45.85;;;;;;;7.48;100.00;99209.75;5052119;28;20037;-72
2023/01/10 04:12:45;;;;;;;126.63;42.15;;;;;;;7.53;100.00;99204.84;5053097;28;20389;-72
2023/01/10 04:15:11;;;;;;;122.82;44.08;;;;;;;7.59;100.00;99210.31;5052719;28;20427;-71
2023/01/10 04:17:37;;;;;;;131.18;45.25;;;;;;;7.65;100.00;99211.50;5052982;28;20060;-71
2023/01/10 04:20:03;;;;;;;120.00;41.28;;;;;;;7.67;100.00;99213.00;5052563;28;20064;-73
2023/01/10 04:22:28;;;;;;;138.43;43.90;;;;;;;7.63;100.00;99235.38;5054195;28;20041;-73
2023/01/10 04:24:54;;;;;;;120.38;43.13;;;;;;;7.53;100.00;99253.09;5054703;28;20036;-72
2023/01/10 04:27:19;;;;;;;130.80;44.67;;;;;;;7.46;100.00;99245.97;5053406;28;20223;-72
2023/01/10 04:29:45;;;;;;;134.48;46.72;;;;;;;7.38;100.00;99252.00;5055023;28;20329;-73
2023/01/10 04:32:11;;;;;;;147.35;51.67;;;;;;;7.33;100.00;99243.75;5055960;28;20112;-72
2023/01/10 04:34:36;;;;;;;135.90;48.70;;;;;;;7.43;100.00;99235.75;5051784;28;20040;-70
2023/01/10 04:37:02;;;;;;;133.65;47.78;;;;;;;7.52;100.00;99234.81;5050622;28;20274;-72
2023/01/10 04:39:27;;;;;;;136.52;47.00;;;;;;;7.55;100.00;99223.97;5054333;28;20261;-71
2023/01/10 04:41:53;;;;;;;136.00;47.28;;;;;;;7.39;100.00;99219.44;5051097;28;20041;-71
2023/01/10 04:44:18;;;;;;;148.55;51.28;;;;;;;7.25;100.00;99231.31;5053121;28;20032;-73
2023/01/10 04:46:44;;;;;;;158.48;51.03;;;;;;;7.36;100.00;99222.38;5051769;28;20047;-72
2023/01/10 04:49:09;;;;;;;149.80;50.15;;;;;;;7.26;100.00;99216.34;5053293;28;20033;-71
2023/01/10 04:51:35;;;;;;;149.43;51.50;;;;;;;7.27;100.00;99225.88;5053155;28;20068;-72
2023/01/10 04:54:00;;;;;;;142.55;47.15;;;;;;;7.39;100.00;99239.66;5052978;28;20039;-73
2023/01/10 04:56:26;;;;;;;163.02;48.85;;;;;;;7.41;100.00;99235.06;5052307;28;20025;-72
2023/01/10 04:58:51;;;;;;;147.57;45.53;;;;;;;7.46;100.00;99243.34;5052779;28;20031;-71
2023/01/10 05:01:20;;;;;;;134.10;43.88;;;;;;;7.46;100.00;99235.44;5052242;28;20037;-72
2023/01/10 05:03:47;;;;;;;134.85;45.25;;;;;;;7.41;100.00;99227.16;5052226;28;20403;-71
2023/01/10 05:06:13;;;;;;;136.43;45.03;;;;;;;7.41;100.00;99220.09;5051775;28;20055;-72
2023/01/10 05:08:39;;;;;;;119.63;43.55;;;;;;;7.47;100.00;99224.75;5052438;28;20041;-72
2023/01/10 05:11:04;;;;;;;128.00;41.78;;;;;;;7.47;100.00;99214.22;5053355;28;20224;-71
2023/01/10 05:13:29;;;;;;;122.18;41.28;;;;;;;7.47;100.00;99213.38;5050490;28;20036;-69
2023/01/10 05:15:56;;;;;;;116.30;41.45;;;;;;;7.34;100.00;99190.09;5053169;28;20051;-71
2023/01/10 05:18:23;;;;;;;117.85;41.08;;;;;;;7.49;100.00;99198.25;5052589;28;20036;-73
2023/01/10 05:20:48;;;;;;;108.38;38.72;;;;;;;7.40;100.00;99196.53;5053522;28;20052;-73
2023/01/10 05:23:14;;;;;;;111.00;39.35;;;;;;;7.54;100.00;99203.88;5052622;28;20036;-72
2023/01/10 05:25:39;;;;;;;107.20;40.13;;;;;;;7.59;100.00;99206.88;5053119;28;20035;-71
2023/01/10 05:28:05;;;;;;;117.18;42.67;;;;;;;7.66;100.00;99206.09;5051194;28;20025;-73
2023/01/10 05:30:30;;;;;;;116.88;38.47;;;;;;;7.71;100.00;99208.25;5053235;28;20285;-71
2023/01/10 05:32:56;;;;;;;106.85;37.08;;;;;;;7.81;100.00;99208.97;5051689;28;20048;-72
2023/01/10 05:35:21;;;;;;;104.47;37.17;;;;;;;7.78;100.00;99195.28;5035903;28;20087;-72
2023/01/10 05:37:46;;;;;;;111.65;40.03;;;;;;;7.87;100.00;99194.31;5052292;28;20335;-72
2023/01/10 05:40:12;;;;;;;99.47;36.50;;;;;;;7.90;100.00;99186.09;5053031;28;20029;-72
2023/01/10 05:42:37;;;;;;;116.85;42.38;;;;;;;7.96;99.84;99182.81;5052248;28;20234;-70
2023/01/10 05:45:04;;;;;;;127.70;42.90;;;;;;;7.85;100.00;99167.31;5052402;28;20080;-71
2023/01/10 05:47:29;;;;;;;149.38;54.53;;;;;;;7.89;100.00;99164.19;5051991;28;20406;-72
2023/01/10 05:49:54;;;;;;;163.55;59.75;;;;;;;7.90;99.90;99165.84;5052727;28;20490;-72
2023/01/10 05:52:20;;;;;;;118.95;45.25;;;;;;;7.83;100.00;99171.91;5050377;28;20103;-72
2023/01/10 05:54:46;;;;;;;117.25;44.60;;;;;;;7.87;100.00;99184.59;5052592;28;20033;-71
2023/01/10 05:57:11;;;;;;;117.88;39.97;;;;;;;7.91;99.93;99183.31;5034719;28;20234;-72
2023/01/10 05:59:36;;;;;;;125.80;44.55;;;;;;;7.89;99.86;99177.38;5051586;28;20059;-72
2023/01/10 06:02:02;;;;;;;116.75;41.60;;;;;;;7.90;100.00;99180.81;5051191;28;20162;-71
2023/01/10 06:04:27;;;;;;;104.90;38.28;;;;;;;7.95;100.00;99179.38;5051319;28;20230;-72
2023/01/10 06:06:53;;;;;;;112.47;39.83;;;;;;;7.96;100.00;99175.75;5052442;28;20037;-72
2023/01/10 06:09:18;;;;;;;118.80;40.53;;;;;;;7.97;100.00;99181.84;5051837;28;20039;-72
2023/01/10 06:11:44;;;;;;;110.55;38.97;;;;;;;7.97;100.00;99181.84;5045878;28;20051;-71
2023/01/10 06:14:09;;;;;;;114.80;38.33;;;;;;;7.83;100.00;99187.72;5051395;28;20102;-72
2023/01/10 06:16:35;;;;;;;129.52;41.53;;;;;;;7.76;100.00;99184.88;5053719;28;20226;-73
2023/01/10 06:19:00;;;;;;;131.57;44.05;;;;;;;7.67;100.00;99191.09;5052221;28;20303;-71
2023/01/10 06:21:26;;;;;;;126.95;42.58;;;;;;;7.65;100.00;99193.91;5051362;28;20112;-71
2023/01/10 06:23:51;;;;;;;132.27;45.38;;;;;;;7.69;100.00;99189.13;5049963;28;20200;-72
2023/01/10 06:26:17;;;;;;;132.90;44.25;;;;;;;7.66;100.00;99179.75;5049742;28;20052;-72
2023/01/10 06:28:43;;;;;;;158.07;44.88;;;;;;;7.68;100.00;99169.03;5049293;28;20362;-72
2023/01/10 06:31:09;;;;;;;134.57;45.13;;;;;;;7.66;100.00;99182.38;5052082;28;20064;-71
2023/01/10 06:33:37;;;;;;;141.48;44.10;;;;;;;7.65;100.00;99178.09;5052438;28;20033;-71
2023/01/10 06:36:03;;;;;;;159.20;45.58;;;;;;;7.47;100.00;99187.88;5048868;28;20037;-72
2023/01/10 06:38:29;;;;;;;157.80;46.47;;;;;;;7.46;100.00;99190.66;5050550;28;20240;-72
2023/01/10 06:40:54;;;;;;;149.85;46.90;;;;;;;7.35;100.00;99174.13;5051606;28;20044;-72
2023/01/10 06:43:20;;;;;;;140.18;43.97;;;;;;;7.32;100.00;99150.75;5053356;28;20226;-71
2023/01/10 06:45:45;;;;;;;148.10;43.58;;;;;;;7.13;100.00;99158.00;5054929;28;20060;-71
2023/01/10 06:48:11;;;;;;;143.98;41.63;;;;;;;7.28;100.00;99159.94;5055901;28;20024;-71
2023/01/10 06:50:36;;;;;;;141.43;43.40;;;;;;;7.24;100.00;99158.56;5053271;28;20037;-72
2023/01/10 06:53:03;;;;;;;128.85;44.08;;;;;;;7.21;100.00;99165.94;5053787;28;20047;-71
2023/01/10 06:55:30;;;;;;;123.65;40.90;;;;;;;7.16;100.00;99169.03;5055470;28;20036;-71
2023/01/10 06:57:58;;;;;;;129.98;39.00;;;;;;;7.24;100.00;99177.00;5055786;28;20236;-71
2023/01/10 07:00:25;;;;;;;141.82;44.42;;;;;;;7.31;100.00;99182.50;5055490;28;20079;-72
2023/01/10 07:02:50;;;;;;;134.88;44.03;;;;;;;7.14;100.00;99178.91;5054964;28;20037;-72
2023/01/10 07:05:16;;;;;;;129.75;44.30;;;;;;;7.25;100.00;99169.91;5055898;28;20051;-71
2023/01/10 07:07:41;;;;;;;139.80;43.33;;;;;;;7.18;100.00;99167.06;5056517;28;20360;-71
2023/01/10 07:10:07;;;;;;;124.82;43.08;;;;;;;7.12;100.00;99153.72;5053337;28;20035;-71
2023/01/10 07:12:33;;;;;;;132.75;41.67;;;;;;;7.00;100.00;99147.88;5055188;28;20231;-71
2023/01/10 07:14:58;;;;;;;139.57;41.85;;;;;;;6.95;100.00;99145.69;5055127;28;20032;-73
2023/01/10 07:17:24;;;;;;;130.68;42.80;;;;;;;6.73;100.00;99144.38;5055241;28;20037;-72
2023/01/10 07:19:49;;;;;;;127.22;44.50;;;;;;;6.90;100.00;99144.50;5055575;28;20040;-72
2023/01/10 07:22:15;;;;;;;141.98;47.13;;;;;;;6.99;100.00;99140.94;5055853;28;20033;-72
2023/01/10 07:24:40;;;;;;;162.90;54.20;;;;;;;7.11;100.00;99139.72;5055084;28;20073;-72
2023/01/10 07:27:06;;;;;;;157.82;55.92;;;;;;;7.14;100.00;99144.66;5055117;28;20029;-72
2023/01/10 07:29:31;;;;;;;148.00;52.30;;;;;;;7.02;100.00;99133.56;5056227;28;20315;-71
2023/01/10 07:31:56;;;;;;;189.07;63.72;;;;;;;6.98;100.00;99139.28;5054429;28;20235;-71
2023/01/10 07:34:22;;;;;;;181.98;61.60;;;;;;;7.05;100.00;99138.53;5055527;28;20353;-72
2023/01/10 07:36:47;;;;;;;169.40;55.97;;;;;;;7.11;100.00;99126.56;5054572;28;20040;-71
2023/01/10 07:39:13;;;;;;;138.50;43.90;;;;;;;7.16;100.00;99119.00;5058838;28;20033;-71
2023/01/10 07:41:38;;;;;;;114.50;40.28;;;;;;;7.14;100.00;99118.34;5053710;28;20265;-72
2023/01/10 07:44:04;;;;;;;132.23;40.42;;;;;;;7.05;100.00;99100.84;5052923;28;20877;-71
2023/01/10 07:46:29;;;;;;;122.47;41.95;;;;;;;7.02;100.00;99096.72;5051836;28;20334;-71
2023/01/10 07:48:55;;;;;;;119.50;39.92;;;;;;;6.96;100.00;99096.50;5054960;28;20032;-72
2023/01/10 07:51:20;;;;;;;124.47;43.80;;;;;;;7.00;100.00;99103.13;5054732;28;20045;-72
2023/01/10 07:53:46;;;;;;;187.50;57.80;;;;;;;7.05;100.00;99101.66;5049550;28;20029;-71
2023/01/10 07:56:11;;;;;;;125.82;42.20;;;;;;;7.07;100.00;99103.31;5052676;28;20350;-73
2023/01/10 07:58:37;;;;;;;115.43;35.75;;;;;;;6.98;100.00;99105.09;5052171;28;20037;-72
2023/01/10 08:01:04;;;;;;;104.82;34.35;;;;;;;6.86;100.00;99087.91;5053326;28;20044;-71
2023/01/10 08:03:31;;;;;;;125.25;38.58;;;;;;;6.84;100.00;99084.59;5053413;28;20029;-71
2023/01/10 08:06:02;;;;;;;116.15;39.13;;;;;;;6.76;100.00;99059.03;5054748;28;20045;-72
2023/01/10 08:08:27;;;;;;;129.48;42.72;;;;;;;6.68;100.00;99070.34;5052555;28;20339;-72
2023/01/10 08:10:53;;;;;;;132.95;40.55;;;;;;;6.77;100.00;99062.50;5053173;28;20067;-71
2023/01/10 08:13:18;;;;;;;127.38;42.13;;;;;;;6.95;100.00;99053.56;5052347;28;20036;-71
2023/01/10 08:15:45;;;;;;;112.78;35.78;;;;;;;7.07;100.00;99056.75;5053275;28;20044;-72
2023/01/10 08:18:11;;;;;;;114.80;35.90;;;;;;;7.13;100.00;99050.88;5050245;28;20481;-72
2023/01/10 08:20:37;;;;;;;110.13;34.03;;;;;;;7.16;100.00;99057.63;5052475;28;20111;-71
2023/01/10 08:23:03;;;;;;;104.13;33.85;;;;;;;7.25;100.00;99059.31;5051994;28;20045;-72
2023/01/10 08:25:28;;;;;;;110.88;36.53;;;;;;;7.31;100.00;99061.34;5051319;28;20067;-72
2023/01/10 08:27:54;;;;;;;111.97;36.78;;;;;;;7.25;100.00;99064.59;5052377;28;20296;-71
2023/01/10 08:30:19;;;;;;;100.95;35.80;;;;;;;7.22;100.00;99065.72;5051941;28;20033;-72
2023/01/10 08:32:45;;;;;;;92.97;33.60;;;;;;;7.10;100.00;99076.69;5050813;28;20045;-72
2023/01/10 08:35:10;;;;;;;84.85;30.23;;;;;;;7.11;100.00;99078.34;5050856;28;20060;-71
2023/01/10 08:37:36;;;;;;;87.53;32.45;;;;;;;7.07;100.00;99075.19;5052801;28;20351;-73
2023/01/10 08:40:02;;;;;;;92.30;30.35;;;;;;;7.02;100.00;99059.03;5050496;28;20029;-73
2023/01/10 08:42:27;;;;;;;89.20;30.90;;;;;;;6.96;100.00;99057.84;5052106;28;20241;-71
2023/01/10 08:44:53;;;;;;;88.55;30.08;;;;;;;7.00;100.00;99050.47;5051566;28;20601;-71
2023/01/10 08:47:19;;;;;;;92.38;36.60;;;;;;;7.05;100.00;99042.94;5052181;28;20327;-72
2023/01/10 08:49:45;;;;;;;83.40;33.50;;;;;;;7.16;100.00;99032.13;5051215;28;20226;-73
2023/01/10 08:52:11;;;;;;;105.15;36.40;;;;;;;7.22;100.00;99039.41;5051845;28;20266;-71
2023/01/10 08:54:37;;;;;;;102.28;34.78;;;;;;;7.24;100.00;99031.34;5051696;28;20040;-72
2023/01/10 08:57:02;;;;;;;107.70;35.72;;;;;;;7.25;100.00;99025.91;5049090;28;20033;-71
2023/01/10 08:59:28;;;;;;;91.80;34.55;;;;;;;7.21;100.00;99029.03;5052124;28;20357;-72
2023/01/10 09:01:53;;;;;;;97.07;32.30;;;;;;;7.19;100.00;99023.09;5051390;28;20033;-71
2023/01/10 09:04:18;;;;;;;89.72;33.67;;;;;;;7.11;100.00;99020.41;5051807;28;20032;-71
2023/01/10 09:06:44;;;;;;;90.05;32.90;;;;;;;7.00;100.00;99022.34;5050617;28;20037;-71
2023/01/10 09:09:09;;;;;;;92.05;34.83;;;;;;;7.04;100.00;99020.22;5053429;28;20071;-71
2023/01/10 09:11:35;;;;;;;98.25;35.33;;;;;;;6.96;100.00;99034.16;5051539;28;20049;-71
2023/01/10 09:14:01;;;;;;;103.22;36.28;;;;;;;6.91;100.00;99018.03;5052017;28;20074;-71
2023/01/10 09:16:26;;;;;;;100.90;37.97;;;;;;;6.94;100.00;99006.34;5050722;28;20029;-70
2023/01/10 09:18:52;;;;;;;119.75;43.35;;;;;;;6.95;100.00;98997.47;5050733;28;20079;-72
2023/01/10 09:21:18;;;;;;;110.88;43.17;;;;;;;6.94;100.00;98975.59;5051894;28;20040;-71
2023/01/10 09:23:43;;;;;;;113.88;40.83;;;;;;;6.95;100.00;98979.88;5053118;28;20037;-71
2023/01/10 09:26:09;;;;;;;114.85;41.53;;;;;;;6.99;100.00;98983.03;5051383;28;21175;-72
2023/01/10 09:28:35;;;;;;;114.55;42.40;;;;;;;7.05;100.00;98987.66;5052847;28;20028;-71
2023/01/10 09:31:03;;;;;;;113.05;42.80;;;;;;;7.12;100.00;98978.13;5050903;28;20048;-71
2023/01/10 09:33:28;;;;;;;108.80;41.88;;;;;;;7.11;100.00;98968.59;5050416;28;20045;-72
2023/01/10 09:35:57;;;;;;;102.20;41.70;;;;;;;7.14;100.00;98963.00;5052354;28;20063;-72
2023/01/10 09:38:23;;;;;;;108.50;42.95;;;;;;;7.26;100.00;98956.47;5055025;28;20029;-72
2023/01/10 09:40:54;;;;;;;104.32;42.13;;;;;;;7.23;100.00;98959.41;5050885;28;20135;-72
2023/01/10 09:43:57;;;;;;;91.80;38.92;;;;;;;7.19;100.00;98944.94;5051501;28;20212;-72
2023/01/10 09:46:47;;;;;;;97.82;40.50;;;;;;;7.26;100.00;98939.84;5051980;28;20090;-72
2023/01/10 09:49:43;;;;;;;104.50;42.05;;;;;;;7.24;100.00;98926.84;5051948;28;20041;-71
2023/01/10 09:52:24;;;;;;;99.95;41.03;;;;;;;7.26;100.00;98921.41;5049361;28;20082;-72
2023/01/10 09:54:53;;;;;;;108.00;43.47;;;;;;;7.37;100.00;98915.88;5035102;28;20726;-71
2023/01/10 09:57:21;;;;;;;112.60;43.38;;;;;;;7.34;100.00;98911.75;5049178;28;20096;-72
2023/01/10 09:59:50;;;;;;;104.57;44.95;;;;;;;7.21;100.00;98894.75;5051583;28;20028;-72
2023/01/10 10:02:29;;;;;;;104.43;46.25;;;;;;;7.17;100.00;98906.59;5052101;28;20387;-72
2023/01/10 10:05:17;;;;;;;97.50;41.05;;;;;;;6.93;100.00;98909.97;5049920;28;20386;-72
2023/01/10 10:07:43;;;;;;;91.85;39.60;;;;;;;6.81;100.00;98904.16;5051720;28;20037;-72
2023/01/10 10:10:20;;;;;;;86.10;36.03;;;;;;;6.75;100.00;98904.78;5051728;28;20369;-71
2023/01/10 10:13:07;;;;;;;98.70;40.97;;;;;;;6.76;100.00;98903.81;5051241;28;20051;-70
2023/01/10 10:15:52;;;;;;;82.57;35.88;;;;;;;6.71;100.00;98899.03;5051186;28;20051;-72
2023/01/10 10:18:26;;;;;;;84.97;34.90;;;;;;;6.77;100.00;98896.75;5054506;28;20290;-71
2023/01/10 10:21:12;;;;;;;89.63;36.58;;;;;;;6.83;100.00;98898.75;5052966;28;20067;-72
2023/01/10 10:23:44;;;;;;;82.90;34.70;;;;;;;6.83;100.00;98898.75;5052281;28;20227;-72
2023/01/10 10:26:17;;;;;;;78.80;36.03;;;;;;;6.89;100.00;98877.88;5052054;28;20075;-71
2023/01/10 10:28:51;;;;;;;82.82;35.78;;;;;;;6.73;100.00;98865.50;5053972;28;20041;-72
2023/01/10 10:31:49;;;;;;;88.57;32.13;;;;;;;6.55;100.00;98851.59;5054332;28;20055;-71
2023/01/10 10:34:23;;;;;;;82.88;34.53;;;;;;;6.60;100.00;98851.13;4993395;28;20345;-72
2023/01/10 10:36:54;;;;;;;88.80;34.15;;;;;;;6.71;100.00;98838.50;5053237;28;20076;-71
2023/01/10 10:39:28;;;;;;;79.22;35.25;;;;;;;6.82;100.00;98831.31;5055976;28;20333;-72
2023/01/10 10:41:55;;;;;;;86.60;36.60;;;;;;;6.76;100.00;98827.50;5055846;28;20431;-72
2023/01/10 10:44:29;;;;;;;97.05;36.17;;;;;;;6.90;100.00;98829.53;5056276;28;20044;-73
2023/01/10 10:46:57;;;;;;;93.75;36.60;;;;;;;7.04;100.00;98818.38;5054536;28;20147;-72
2023/01/10 10:49:36;;;;;;;97.22;37.78;;;;;;;7.06;100.00;98807.69;5055802;28;20099;-72
2023/01/10 10:52:11;;;;;;;84.38;34.92;;;;;;;7.09;100.00;98811.78;5056355;28;20037;-72
2023/01/10 10:54:37;;;;;;;87.90;35.58;;;;;;;7.19;100.00;98815.09;5054818;28;20041;-71
2023/01/10 10:57:02;;;;;;;83.78;34.90;;;;;;;6.97;100.00;98796.31;5055096;28;20041;-72
2023/01/10 10:59:28;;;;;;;83.40;34.67;;;;;;;7.19;100.00;98802.75;5055524;28;20338;-71
2023/01/10 11:01:53;;;;;;;107.25;36.63;;;;;;;7.23;100.00;98813.78;5055909;28;20040;-71
2023/01/10 11:04:22;;;;;;;96.95;35.80;;;;;;;7.24;100.00;98810.97;5055470;28;20060;-71
2023/01/10 11:06:48;;;;;;;95.25;36.78;;;;;;;7.20;100.00;98806.22;5056562;28;20367;-72
2023/01/10 11:09:23;;;;;;;98.15;36.92;;;;;;;6.87;100.00;98787.75;5055077;28;20028;-71
2023/01/10 11:11:51;;;;;;;95.95;37.33;;;;;;;7.03;100.00;98798.28;5055029;28;20223;-71
2023/01/10 11:14:46;;;;;;;95.28;38.88;;;;;;;7.09;100.00;98796.00;5055247;28;20442;-71
2023/01/10 11:17:26;;;;;;;86.72;35.50;;;;;;;7.04;100.00;98765.72;5055098;28;20037;-72
2023/01/10 11:20:16;;;;;;;91.80;37.78;;;;;;;6.91;100.00;98770.66;5055260;28;20040;-72
2023/01/10 11:22:52;;;;;;;89.88;36.28;;;;;;;7.12;100.00;98767.53;5045079;28;20068;-72
2023/01/10 11:25:21;;;;;;;94.30;35.88;;;;;;;7.22;100.00;98762.94;5052508;28;20029;-72
2023/01/10 11:27:50;;;;;;;91.40;37.55;;;;;;;7.31;100.00;98753.25;5051863;28;20047;-72
2023/01/10 11:30:23;;;;;;;99.32;39.28;;;;;;;7.11;100.00;98752.72;5054918;28;20132;-72